Terminal Aerodrome Forecast
Issued by NWS

Home | Current Version | Previous Version | Text Only | Print | Product List | Glossary On
Versions: 1 2 3 4 5 6 7 8 9 10 11 12 13 14
000
FTUS42 KMLB 271734
TAFFPR
TAF
KFPR 271734Z 2718/2818 09010KT P6SM VCSH SCT035 SCT050 SCT250
     FM280200 09007KT P6SM VCSH SCT030 SCT250
     FM281200 08012KT P6SM SCT020 SCT250=

USA.gov is the U.S. government's official web portal to all federal, state and local government web resources and services.